FDX46G DTTA-DAAG
Flight info
| Callsign | FDX46G |
|---|---|
| Flight time | N/A |
| Altitude | 38000 |
| Route | KEMIR A411 BJA DCT 37N004E DCT ZEM |
| Aircraft | MD11/H-SDE1E2E3FGHIJ2J3J4J5M1RWXY/LB1D1 |
Departure
| Time | 2026-05-01 15:10 |
|---|---|
| Airport | Tunis Carthage International Airport (DTTA) |
Arrival
| Time | N/A |
|---|---|
| Airport | Houari Boumediene Airport (DAAG) |
| Time | Latitude | Longitude | Altitude | Speed | Heading |
|---|---|---|---|---|---|
| 2026-05-01 14:50 | 36.84122 | 10.21995 | 31 ft | 0 kts | 102° |
| 2026-05-01 14:58 | 36.84122 | 10.21994 | 26 ft | 1 kts | 102° |
| 2026-05-01 14:58 | 36.84123 | 10.21986 | 26 ft | 1 kts | 102° |
| 2026-05-01 14:58 | 36.84125 | 10.21976 | 30 ft | 1 kts | 101° |
| 2026-05-01 14:58 | 36.84126 | 10.21972 | 31 ft | 0 kts | 101° |
| 2026-05-01 14:59 | 36.84126 | 10.21969 | 31 ft | 0 kts | 101° |
| 2026-05-01 14:59 | 36.84127 | 10.21965 | 31 ft | 0 kts | 101° |
| 2026-05-01 14:59 | 36.84127 | 10.21962 | 28 ft | 0 kts | 101° |
| 2026-05-01 14:59 | 36.84128 | 10.21955 | 29 ft | 1 kts | 101° |
| 2026-05-01 15:00 | 36.84133 | 10.21925 | 25 ft | 2 kts | 101° |
| 2026-05-01 15:00 | 36.84136 | 10.21909 | 24 ft | 2 kts | 101° |
| 2026-05-01 15:00 | 36.84140 | 10.21893 | 26 ft | 2 kts | 137° |
| 2026-05-01 15:01 | 36.84151 | 10.21884 | 23 ft | 2 kts | 196° |
| 2026-05-01 15:01 | 36.84164 | 10.21890 | 23 ft | 2 kts | 194° |
| 2026-05-01 15:01 | 36.84171 | 10.21892 | 25 ft | 0 kts | 192° |
| 2026-05-01 15:05 | 36.84166 | 10.21891 | 25 ft | 3 kts | 192° |
| 2026-05-01 15:06 | 36.84128 | 10.21881 | 24 ft | 9 kts | 192° |
| 2026-05-01 15:06 | 36.84046 | 10.21858 | 29 ft | 15 kts | 192° |
| 2026-05-01 15:06 | 36.83940 | 10.21843 | 27 ft | 15 kts | 168° |
| 2026-05-01 15:06 | 36.83905 | 10.21890 | 29 ft | 8 kts | 109° |
| 2026-05-01 15:07 | 36.83886 | 10.21980 | 25 ft | 13 kts | 103° |
| 2026-05-01 15:07 | 36.83869 | 10.22077 | 27 ft | 9 kts | 102° |
| 2026-05-01 15:07 | 36.83860 | 10.22170 | 28 ft | 13 kts | 96° |
| 2026-05-01 15:07 | 36.83864 | 10.22216 | 29 ft | 2 kts | 60° |
| 2026-05-01 15:08 | 36.83879 | 10.22247 | 26 ft | 7 kts | 59° |
| 2026-05-01 15:08 | 36.83910 | 10.22313 | 28 ft | 11 kts | 59° |
| 2026-05-01 15:08 | 36.83968 | 10.22388 | 29 ft | 6 kts | 38° |
| 2026-05-01 15:08 | 36.83993 | 10.22397 | 29 ft | 6 kts | 14° |
| 2026-05-01 15:09 | 36.84011 | 10.22402 | 28 ft | 7 kts | 14° |
| 2026-05-01 15:09 | 36.84185 | 10.22450 | 26 ft | 60 kts | 12° |
| 2026-05-01 15:09 | 36.84897 | 10.22643 | 35 ft | 144 kts | 12° |
| 2026-05-01 15:09 | 36.86008 | 10.22945 | 552 ft | 172 kts | 12° |
| 2026-05-01 15:10 | 36.87147 | 10.23233 | 1736 ft | 163 kts | 13° |
| 2026-05-01 15:10 | 36.89428 | 10.23837 | 3691 ft | 196 kts | 14° |
| 2026-05-01 15:10 | 36.90920 | 10.24261 | 3878 ft | 241 kts | 13° |
| 2026-05-01 15:11 | 36.92628 | 10.24738 | 4503 ft | 257 kts | 13° |
| 2026-05-01 15:11 | 36.95928 | 10.23683 | 6945 ft | 258 kts | 318° |
| 2026-05-01 15:11 | 36.97097 | 10.21971 | 7884 ft | 266 kts | 301° |
| 2026-05-01 15:12 | 36.97530 | 10.19703 | 8928 ft | 276 kts | 270° |
| 2026-05-01 15:12 | 36.95390 | 10.15622 | 10363 ft | 324 kts | 212° |
| 2026-05-01 15:12 | 36.93121 | 10.14773 | 10509 ft | 362 kts | 184° |
| 2026-05-01 15:13 | 36.86053 | 10.18626 | 12713 ft | 388 kts | 154° |
| 2026-05-01 15:14 | 36.80746 | 10.19129 | 14439 ft | 391 kts | 201° |
| 2026-05-01 15:14 | 36.78396 | 10.17550 | 15222 ft | 388 kts | 223° |
| 2026-05-01 15:14 | 36.75686 | 10.11938 | 16711 ft | 382 kts | 261° |
| 2026-05-01 15:15 | 36.76161 | 10.05472 | 18178 ft | 380 kts | 292° |
| 2026-05-01 15:15 | 36.78073 | 9.99239 | 19431 ft | 386 kts | 289° |
| 2026-05-01 15:16 | 36.79329 | 9.92713 | 20642 ft | 392 kts | 281° |
| 2026-05-01 15:16 | 36.80098 | 9.85932 | 21915 ft | 397 kts | 277° |
| 2026-05-01 15:17 | 36.80705 | 9.79039 | 23156 ft | 403 kts | 276° |
| 2026-05-01 15:18 | 36.81578 | 9.68526 | 24875 ft | 411 kts | 276° |
| 2026-05-01 15:18 | 36.81874 | 9.64950 | 25431 ft | 414 kts | 276° |
| 2026-05-01 15:19 | 36.82769 | 9.54109 | 27110 ft | 424 kts | 276° |
| 2026-05-01 15:19 | 36.83377 | 9.46691 | 28184 ft | 431 kts | 276° |
| 2026-05-01 15:19 | 36.83657 | 9.42989 | 28562 ft | 437 kts | 274° |
| 2026-05-01 15:20 | 36.83703 | 9.35331 | 29592 ft | 444 kts | 269° |
| 2026-05-01 15:20 | 36.83601 | 9.31437 | 30092 ft | 448 kts | 268° |
| 2026-05-01 15:20 | 36.83486 | 9.27549 | 30535 ft | 450 kts | 268° |
| 2026-05-01 15:21 | 36.83376 | 9.23684 | 31092 ft | 449 kts | 268° |
| 2026-05-01 15:21 | 36.83275 | 9.19814 | 31662 ft | 447 kts | 268° |
| 2026-05-01 15:21 | 36.83180 | 9.15950 | 32226 ft | 445 kts | 268° |
| 2026-05-01 15:21 | 36.83087 | 9.12060 | 32786 ft | 443 kts | 268° |
| 2026-05-01 15:22 | 36.82897 | 9.04387 | 33776 ft | 442 kts | 268° |
| 2026-05-01 15:22 | 36.82802 | 9.00588 | 34259 ft | 440 kts | 268° |
| 2026-05-01 15:22 | 36.82752 | 8.96771 | 34706 ft | 438 kts | 269° |
| 2026-05-01 15:23 | 36.82791 | 8.92997 | 35137 ft | 436 kts | 270° |
| 2026-05-01 15:23 | 36.82873 | 8.89239 | 35577 ft | 434 kts | 271° |
| 2026-05-01 15:23 | 36.82971 | 8.85448 | 35988 ft | 432 kts | 271° |
| 2026-05-01 15:23 | 36.83068 | 8.81744 | 36399 ft | 430 kts | 271° |
| 2026-05-01 15:24 | 36.83161 | 8.78020 | 36786 ft | 428 kts | 271° |
| 2026-05-01 15:24 | 36.83249 | 8.74305 | 37181 ft | 426 kts | 270° |
| 2026-05-01 15:24 | 36.83332 | 8.70607 | 37578 ft | 424 kts | 270° |
| 2026-05-01 15:24 | 36.83411 | 8.66944 | 37982 ft | 421 kts | 270° |
| 2026-05-01 15:25 | 36.83458 | 8.63268 | 38111 ft | 425 kts | 269° |
| 2026-05-01 15:25 | 36.83470 | 8.59561 | 38135 ft | 427 kts | 269° |
| 2026-05-01 15:25 | 36.83463 | 8.52190 | 38143 ft | 427 kts | 269° |
| 2026-05-01 15:26 | 36.83455 | 8.44783 | 38149 ft | 427 kts | 269° |
| 2026-05-01 15:26 | 36.83450 | 8.38622 | 38148 ft | 427 kts | 269° |
| 2026-05-01 15:27 | 36.83443 | 8.31199 | 38147 ft | 427 kts | 269° |
| 2026-05-01 15:28 | 36.83424 | 8.20118 | 38148 ft | 427 kts | 269° |
| 2026-05-01 15:28 | 36.83406 | 8.12711 | 38153 ft | 427 kts | 269° |
| 2026-05-01 15:29 | 36.83370 | 8.01609 | 38156 ft | 426 kts | 269° |
| 2026-05-01 15:30 | 36.83306 | 7.86811 | 38156 ft | 425 kts | 269° |
| 2026-05-01 15:31 | 36.83072 | 7.64727 | 38156 ft | 425 kts | 268° |
| 2026-05-01 15:32 | 36.82903 | 7.49948 | 38157 ft | 426 kts | 268° |
| 2026-05-01 15:34 | 36.82620 | 7.27853 | 38154 ft | 425 kts | 268° |